createdAt,value
2023-04-15T00:00:51.080Z,10.60
2023-04-15T00:04:39.761Z,10.70
2023-04-15T00:08:28.654Z,9.90
2023-04-15T00:12:17.570Z,9.10
2023-04-15T00:16:07.048Z,9.30
2023-04-15T00:20:21.523Z,9.80
2023-04-15T00:24:10.408Z,8.60
2023-04-15T00:27:41.093Z,9.80
2023-04-15T00:31:21.098Z,11.70
2023-04-15T00:35:02.747Z,9.00
2023-04-15T00:38:44.342Z,9.60
2023-04-15T00:42:25.723Z,8.50
2023-04-15T00:46:14.575Z,11.50
2023-04-15T00:49:43.333Z,10.20
2023-04-15T00:53:18.165Z,16.30
2023-04-15T00:57:11.198Z,15.60
2023-04-15T01:01:00.145Z,12.00
2023-04-15T01:04:40.258Z,11.70
2023-04-15T01:07:59.925Z,9.60
2023-04-15T01:11:47.554Z,13.60
2023-04-15T01:15:36.366Z,10.80
2023-04-15T01:19:00.436Z,10.10
2023-04-15T01:22:39.331Z,9.70
2023-04-15T01:26:28.160Z,12.30
2023-04-15T01:30:08.096Z,9.00
2023-04-15T01:33:54.440Z,11.00
2023-04-15T01:37:26.560Z,12.40
2023-04-15T01:40:48.632Z,10.70
2023-04-15T01:44:03.409Z,9.80
2023-04-15T01:47:39.025Z,11.50
2023-04-15T01:51:09.314Z,9.90
2023-04-15T01:54:06.957Z,13.30
2023-04-15T01:57:48.604Z,13.30
2023-04-15T02:01:26.481Z,8.00
2023-04-15T02:04:52.618Z,14.60
2023-04-15T02:08:21.092Z,9.40
2023-04-15T02:11:41.057Z,11.20
2023-04-15T02:15:20.886Z,11.60
2023-04-15T02:18:54.130Z,12.80
2023-04-15T02:22:32.940Z,12.00
2023-04-15T02:25:31.884Z,11.20
2023-04-15T02:28:56.976Z,14.00
2023-04-15T02:32:35.706Z,12.60
2023-04-15T02:35:44.177Z,13.80
2023-04-15T02:39:32.538Z,14.90
2023-04-15T02:43:05.754Z,14.30
2023-04-15T02:46:37.581Z,13.40
2023-04-15T02:49:44.688Z,15.40
2023-04-15T02:53:33.624Z,10.10
2023-04-15T02:57:06.797Z,13.90
2023-04-15T03:00:25.248Z,14.30
2023-04-15T03:04:04.710Z,15.10
2023-04-15T03:07:46.351Z,8.50
2023-04-15T03:11:24.730Z,13.80
2023-04-15T03:14:57.523Z,9.50
2023-04-15T03:18:17.310Z,14.40
2023-04-15T03:21:54.376Z,9.90
2023-04-15T03:25:36.557Z,8.50
2023-04-15T03:29:24.192Z,10.70
2023-04-15T03:32:46.671Z,13.30
2023-04-15T03:36:22.572Z,15.80
2023-04-15T03:39:27.690Z,11.00
2023-04-15T03:43:08.740Z,11.80
2023-04-15T03:46:57.388Z,10.20
2023-04-15T03:50:21.194Z,12.90
2023-04-15T03:54:00.053Z,10.70
2023-04-15T03:57:48.917Z,13.50
2023-04-15T04:01:28.069Z,12.20
2023-04-15T04:04:44.280Z,12.80
2023-04-15T04:08:19.399Z,13.40
2023-04-15T04:11:21.031Z,11.00
2023-04-15T04:14:26.741Z,12.00
2023-04-15T04:18:01.256Z,13.50
2023-04-15T04:21:35.159Z,13.10
2023-04-15T04:25:18.511Z,17.00
2023-04-15T04:28:48.256Z,16.70
2023-04-15T04:32:38.756Z,17.00
2023-04-15T04:36:18.966Z,12.50
2023-04-15T04:39:49.620Z,16.40
2023-04-15T04:43:26.354Z,20.90
2023-04-15T04:46:48.082Z,14.80
2023-04-15T04:50:19.348Z,15.40
2023-04-15T04:53:33.339Z,13.30
2023-04-15T04:57:07.861Z,14.80
2023-04-15T05:00:52.121Z,15.00
2023-04-15T05:04:23.257Z,12.60
2023-04-15T05:07:56.189Z,11.90
2023-04-15T05:11:27.380Z,12.90
2023-04-15T05:14:56.669Z,19.30
2023-04-15T05:18:45.528Z,16.70
2023-04-15T05:22:27.424Z,17.80
2023-04-15T05:26:06.240Z,14.50
2023-04-15T05:29:37.415Z,19.30
2023-04-15T05:33:10.287Z,15.50
2023-04-15T05:36:35.766Z,17.20
2023-04-15T05:40:20.661Z,19.00
2023-04-15T05:43:32.630Z,17.80
2023-04-15T05:46:54.199Z,16.10
2023-04-15T05:50:28.362Z,20.80
2023-04-15T05:53:52.857Z,18.30
2023-04-15T05:56:55.456Z,21.10
2023-04-15T06:00:18.079Z,20.70
2023-04-15T06:03:33.027Z,18.70
2023-04-15T06:07:15.023Z,29.40
2023-04-15T06:10:50.367Z,35.70
2023-04-15T06:14:30.326Z,27.60
2023-04-15T06:18:19.972Z,26.50
2023-04-15T06:22:08.859Z,21.70
2023-04-15T06:25:47.120Z,31.10
2023-04-15T06:29:29.625Z,18.10
2023-04-15T06:32:34.338Z,20.60
2023-04-15T06:36:17.920Z,21.90
2023-04-15T06:40:07.030Z,16.40
2023-04-15T06:44:37.046Z,14.90
2023-04-15T06:49:06.461Z,19.40
2023-04-15T06:53:37.095Z,17.40
2023-04-15T06:58:06.250Z,19.90
2023-04-15T07:02:35.949Z,20.70
2023-04-15T07:07:04.949Z,18.60
2023-04-15T07:11:38.475Z,18.60
2023-04-15T07:16:07.704Z,22.80
2023-04-15T07:24:16.810Z,19.60
2023-04-15T07:27:20.264Z,19.40
2023-04-15T07:31:02.154Z,16.20
2023-04-15T07:34:45.016Z,18.70
2023-04-15T07:38:31.372Z,23.40
2023-04-15T07:41:57.376Z,19.20
2023-04-15T07:45:46.801Z,17.60
2023-04-15T07:49:28.137Z,21.60
2023-04-15T07:53:07.264Z,19.90
2023-04-15T07:56:46.088Z,17.70
2023-04-15T07:59:59.581Z,19.10
2023-04-15T08:03:05.503Z,18.80
2023-04-15T08:06:30.009Z,22.90
2023-04-15T08:10:20.420Z,19.20
2023-04-15T08:13:29.253Z,21.60
2023-04-15T08:16:51.070Z,21.60
2023-04-15T08:20:21.989Z,17.90
2023-04-15T08:24:08.318Z,16.90
2023-04-15T08:27:17.272Z,16.30
2023-04-15T08:31:07.420Z,14.60
2023-04-15T08:43:11.377Z,6.00
2023-04-15T08:50:46.738Z,5.90
2023-04-15T08:55:14.872Z,7.90
2023-04-15T09:04:03.303Z,7.50
2023-04-15T09:08:00.730Z,8.10
2023-04-15T09:11:53.419Z,11.20
2023-04-15T09:15:59.011Z,10.90
2023-04-15T09:20:08.001Z,9.10
2023-04-15T09:24:00.662Z,6.50
2023-04-15T09:28:13.342Z,6.20
2023-04-15T09:32:35.449Z,5.50
2023-04-15T09:40:30.102Z,10.40
2023-04-15T09:48:55.796Z,10.70
2023-04-15T09:53:24.977Z,8.90
2023-04-15T09:57:54.848Z,9.60
2023-04-15T10:02:36.093Z,7.30
2023-04-15T10:07:06.996Z,9.40
2023-04-15T10:11:15.703Z,5.50
2023-04-15T10:15:03.576Z,6.10
2023-04-15T10:18:51.663Z,6.00
2023-04-15T10:22:39.944Z,8.10
2023-04-15T10:26:29.455Z,9.20
2023-04-15T10:30:18.114Z,14.90
2023-04-15T10:34:06.583Z,13.30
2023-04-15T10:37:59.219Z,26.20
2023-04-15T10:41:58.049Z,13.00
2023-04-15T10:45:46.550Z,11.90
2023-04-15T10:49:40.598Z,7.30
2023-04-15T10:53:28.701Z,6.50
2023-04-15T10:57:17.058Z,6.30
2023-04-15T11:01:08.576Z,5.90
2023-04-15T11:04:57.000Z,4.70
2023-04-15T11:08:50.819Z,6.00
2023-04-15T11:12:49.095Z,4.80
2023-04-15T11:20:51.009Z,3.20
2023-04-15T11:24:26.361Z,3.80
2023-04-15T11:28:13.909Z,3.90
2023-04-15T11:32:06.738Z,3.80
2023-04-15T11:35:56.443Z,4.50
2023-04-15T11:39:44.078Z,5.50
2023-04-15T11:43:26.639Z,6.00
2023-04-15T11:47:43.310Z,5.90
2023-04-15T11:51:19.698Z,10.60
2023-04-15T11:55:10.318Z,17.20
2023-04-15T11:59:06.892Z,7.90
2023-04-15T12:07:09.625Z,6.90
2023-04-15T12:15:11.491Z,7.10
2023-04-15T12:19:00.020Z,5.50
2023-04-15T12:22:47.260Z,7.20
2023-04-15T12:27:15.095Z,14.50
2023-04-15T12:31:37.234Z,3.40
2023-04-15T12:35:30.402Z,2.40
2023-04-15T12:39:18.352Z,4.90
2023-04-15T12:42:49.748Z,4.20
2023-04-15T12:46:37.281Z,3.70
2023-04-15T12:50:25.497Z,4.30
2023-04-15T12:54:13.668Z,10.50
2023-04-15T12:58:01.214Z,8.60
2023-04-15T13:01:50.310Z,9.60
2023-04-15T13:05:38.591Z,7.70
2023-04-15T13:09:26.435Z,12.40
2023-04-15T13:13:16.873Z,9.30
2023-04-15T13:17:05.035Z,13.50
2023-04-15T13:20:51.894Z,12.70
2023-04-15T13:24:32.594Z,9.10
2023-04-15T13:28:20.624Z,10.90
2023-04-15T13:32:08.332Z,8.30
2023-04-15T13:35:47.980Z,9.90
2023-04-15T13:39:36.305Z,18.40
2023-04-15T13:43:24.566Z,10.00
2023-04-15T13:47:12.889Z,10.70
2023-04-15T13:51:00.901Z,9.40
2023-04-15T13:54:48.742Z,7.70
2023-04-15T13:58:56.540Z,16.40
2023-04-15T14:02:44.648Z,17.60
2023-04-15T14:06:32.625Z,25.30
2023-04-15T14:10:20.317Z,15.10
2023-04-15T14:14:08.066Z,18.10
2023-04-15T14:17:55.909Z,15.50
2023-04-15T14:21:16.628Z,13.90
2023-04-15T14:25:04.396Z,13.10
2023-04-15T14:28:38.125Z,14.60
2023-04-15T14:32:11.601Z,15.00
2023-04-15T14:35:49.823Z,14.30
2023-04-15T14:39:14.927Z,14.30
2023-04-15T14:42:42.772Z,15.00
2023-04-15T14:46:31.303Z,14.20
2023-04-15T14:50:09.700Z,12.10
2023-04-15T14:53:49.475Z,9.30
2023-04-15T14:57:31.134Z,10.90
2023-04-15T15:01:10.389Z,11.70
2023-04-15T15:04:32.314Z,8.10
2023-04-15T15:08:10.739Z,9.10
2023-04-15T15:11:58.975Z,20.00
2023-04-15T15:15:41.585Z,12.30
2023-04-15T15:19:13.842Z,13.30
2023-04-15T15:22:53.907Z,12.90
2023-04-15T15:26:42.554Z,8.40
2023-04-15T15:30:31.813Z,13.00
2023-04-15T15:34:11.329Z,13.90
2023-04-15T15:37:44.207Z,18.10
2023-04-15T15:41:32.203Z,13.70
2023-04-15T15:45:19.122Z,14.20
2023-04-15T15:48:55.950Z,19.50
2023-04-15T15:52:28.374Z,21.40
2023-04-15T15:56:16.621Z,15.80
2023-04-15T15:59:40.344Z,11.00
2023-04-15T16:03:10.390Z,13.50
2023-04-15T16:06:34.418Z,13.10
2023-04-15T16:10:23.337Z,13.90
2023-04-15T16:14:03.587Z,14.80
2023-04-15T16:17:42.077Z,13.10
2023-04-15T16:21:13.156Z,14.00
2023-04-15T16:24:54.437Z,13.90
2023-04-15T16:28:40.987Z,10.00
2023-04-15T16:32:11.447Z,11.10
2023-04-15T16:36:04.089Z,10.40
2023-04-15T16:39:32.461Z,20.70
2023-04-15T16:43:20.872Z,12.60
2023-04-15T16:47:01.639Z,24.30
2023-04-15T16:50:40.021Z,19.10
2023-04-15T16:54:28.213Z,16.80
2023-04-15T16:58:15.917Z,21.00
2023-04-15T17:02:02.358Z,23.70
2023-04-15T17:05:53.179Z,15.90
2023-04-15T17:09:10.002Z,14.50
2023-04-15T17:12:57.809Z,12.40
2023-04-15T17:16:44.160Z,13.20
2023-04-15T17:20:31.592Z,11.00
2023-04-15T17:24:04.917Z,13.70
2023-04-15T17:27:45.125Z,13.00
2023-04-15T17:31:32.687Z,14.00
2023-04-15T17:35:13.931Z,15.10
2023-04-15T17:38:53.183Z,22.00
2023-04-15T17:42:25.578Z,19.80
2023-04-15T17:46:13.756Z,16.00
2023-04-15T17:49:32.084Z,17.70
2023-04-15T17:53:07.428Z,16.60
2023-04-15T17:57:00.022Z,21.80
2023-04-15T18:00:43.333Z,24.70
2023-04-15T18:04:23.233Z,25.50
2023-04-15T18:08:11.334Z,23.60
2023-04-15T18:11:40.098Z,23.40
2023-04-15T18:15:29.518Z,26.50
2023-04-15T18:19:19.724Z,25.80
2023-04-15T18:23:02.277Z,22.70
2023-04-15T18:26:36.817Z,26.40
2023-04-15T18:30:18.035Z,34.60
2023-04-15T18:34:02.414Z,61.40
2023-04-15T18:37:42.480Z,71.50
2023-04-15T18:41:08.835Z,68.40
2023-04-15T18:44:48.746Z,59.00
2023-04-15T18:48:37.258Z,50.20
2023-04-15T18:52:00.427Z,42.80
2023-04-15T18:55:34.489Z,35.00
2023-04-15T18:59:27.302Z,33.20
2023-04-15T19:02:39.481Z,27.20
2023-04-15T19:06:34.079Z,27.80
2023-04-15T19:10:13.426Z,26.90
2023-04-15T19:13:35.335Z,24.10
2023-04-15T19:17:01.683Z,21.10
2023-04-15T19:20:52.221Z,24.00
2023-04-15T19:24:41.626Z,24.10
2023-04-15T19:28:38.372Z,22.30
2023-04-15T19:32:30.481Z,25.10
2023-04-15T19:36:13.014Z,30.10
2023-04-15T19:39:20.230Z,25.40
2023-04-15T19:43:08.538Z,25.00
2023-04-15T19:47:02.708Z,27.50
2023-04-15T19:50:31.351Z,24.50
2023-04-15T19:54:20.853Z,25.90
2023-04-15T19:57:43.448Z,24.60
2023-04-15T20:01:16.473Z,32.40
2023-04-15T20:04:55.764Z,32.70
2023-04-15T20:08:41.584Z,30.00
2023-04-15T20:12:49.390Z,37.40
2023-04-15T20:16:37.636Z,46.60
2023-04-15T20:20:16.707Z,47.90
2023-04-15T20:24:04.927Z,71.20
2023-04-15T20:27:53.828Z,56.10
2023-04-15T20:31:42.328Z,72.30
2023-04-15T20:35:22.647Z,65.50
2023-04-15T20:39:11.133Z,59.60
2023-04-15T20:42:59.552Z,70.40
2023-04-15T20:46:41.254Z,65.00
2023-04-15T20:50:27.757Z,77.20
2023-04-15T20:54:00.545Z,79.50
2023-04-15T20:57:48.299Z,79.60
2023-04-15T21:01:22.082Z,69.10
2023-04-15T21:04:47.605Z,76.50
2023-04-15T21:08:28.755Z,71.80
2023-04-15T21:12:16.530Z,71.70
2023-04-15T21:15:51.551Z,67.30
2023-04-15T21:19:15.227Z,54.00
2023-04-15T21:23:03.163Z,55.20
2023-04-15T21:26:45.002Z,53.80
2023-04-15T21:30:32.718Z,52.10
2023-04-15T21:33:52.611Z,46.00
2023-04-15T21:37:32.712Z,45.60
2023-04-15T21:41:15.912Z,54.60
2023-04-15T21:44:55.959Z,51.70
2023-04-15T21:48:44.841Z,59.70
2023-04-15T21:52:25.074Z,56.90
2023-04-15T21:56:12.578Z,58.90
2023-04-15T21:59:35.916Z,64.10
2023-04-15T22:03:17.617Z,55.50
2023-04-15T22:06:48.825Z,52.40
2023-04-15T22:10:25.978Z,57.10
2023-04-15T22:13:46.841Z,52.40
2023-04-15T22:17:34.081Z,55.20
2023-04-15T22:21:10.760Z,50.30
2023-04-15T22:24:58.612Z,65.90
2023-04-15T22:28:32.115Z,70.40
2023-04-15T22:32:09.790Z,68.00
2023-04-15T22:35:50.151Z,76.50
2023-04-15T22:39:37.984Z,140.60
2023-04-15T22:43:25.722Z,122.00
2023-04-15T22:46:56.203Z,75.90
2023-04-15T22:50:44.288Z,106.20
2023-04-15T22:54:30.209Z,141.50
2023-04-15T22:58:09.755Z,96.60
2023-04-15T23:01:40.687Z,80.40
2023-04-15T23:05:13.090Z,54.90
2023-04-15T23:09:01.553Z,59.70
2023-04-15T23:12:42.033Z,46.50
2023-04-15T23:16:29.998Z,54.60
2023-04-15T23:20:11.655Z,57.80
2023-04-15T23:23:56.587Z,52.20
2023-04-15T23:27:27.484Z,50.80
2023-04-15T23:31:07.875Z,46.20
2023-04-15T23:34:48.113Z,52.70
2023-04-15T23:38:35.763Z,51.60
2023-04-15T23:42:13.183Z,53.60
2023-04-15T23:45:53.302Z,48.20
2023-04-15T23:49:39.834Z,43.10
2023-04-15T23:53:29.107Z,41.50
2023-04-15T23:57:16.719Z,42.10
